createdAt,value
2023-03-12T00:00:51.186Z,10.57
2023-03-12T00:03:18.813Z,11.95
2023-03-12T00:05:46.292Z,10.25
2023-03-12T00:08:13.569Z,9.55
2023-03-12T00:10:41.320Z,9.13
2023-03-12T00:13:08.861Z,9.48
2023-03-12T00:15:39.417Z,9.48
2023-03-12T00:18:06.478Z,11.07
2023-03-12T00:20:33.425Z,10.80
2023-03-12T00:23:00.361Z,10.93
2023-03-12T00:25:27.541Z,9.98
2023-03-12T00:27:54.736Z,9.68
2023-03-12T00:30:21.667Z,10.57
2023-03-12T00:32:48.659Z,12.40
2023-03-12T00:35:15.659Z,10.93
2023-03-12T00:37:42.559Z,10.50
2023-03-12T00:40:11.359Z,10.13
2023-03-12T00:42:38.448Z,10.15
2023-03-12T00:45:06.036Z,10.27
2023-03-12T00:47:33.020Z,11.00
2023-03-12T00:49:59.968Z,10.27
2023-03-12T00:52:26.915Z,10.07
2023-03-12T00:54:58.137Z,10.07
2023-03-12T00:57:25.725Z,10.77
2023-03-12T00:59:52.667Z,10.82
2023-03-12T01:02:19.584Z,9.18
2023-03-12T01:04:46.706Z,9.43
2023-03-12T01:07:13.874Z,9.55
2023-03-12T01:09:40.864Z,10.40
2023-03-12T01:12:08.238Z,10.80
2023-03-12T01:14:35.137Z,9.63
2023-03-12T01:17:27.191Z,11.10
2023-03-12T01:19:54.253Z,9.05
2023-03-12T01:22:21.227Z,11.10
2023-03-12T01:24:48.310Z,10.30
2023-03-12T01:27:15.272Z,9.13
2023-03-12T01:29:42.255Z,10.35
2023-03-12T01:32:09.276Z,9.30
2023-03-12T01:34:36.232Z,10.95
2023-03-12T01:37:03.128Z,10.05
2023-03-12T01:39:30.364Z,9.73
2023-03-12T01:41:57.284Z,9.40
2023-03-12T01:44:24.199Z,8.63
2023-03-12T01:46:51.153Z,9.80
2023-03-12T01:49:33.555Z,10.70
2023-03-12T01:52:17.415Z,9.07
2023-03-12T01:55:07.251Z,8.77
2023-03-12T01:57:46.191Z,8.43
2023-03-12T02:00:21.288Z,9.23
2023-03-12T02:02:51.357Z,8.13
2023-03-12T02:06:07.306Z,7.75
2023-03-12T02:08:43.470Z,7.00
2023-03-12T02:11:11.710Z,6.68
2023-03-12T02:13:39.831Z,7.13
2023-03-12T02:16:07.248Z,6.72
2023-03-12T02:18:35.741Z,7.55
2023-03-12T02:21:21.343Z,6.93
2023-03-12T02:24:15.790Z,6.63
2023-03-12T02:26:42.977Z,6.60
2023-03-12T02:29:11.435Z,6.28
2023-03-12T02:31:49.059Z,8.02
2023-03-12T02:34:16.589Z,6.03
2023-03-12T02:36:43.578Z,8.48
2023-03-12T02:39:12.843Z,7.18
2023-03-12T02:41:48.096Z,5.60
2023-03-12T02:44:22.667Z,6.15
2023-03-12T02:46:55.568Z,5.65
2023-03-12T02:49:27.757Z,5.43
2023-03-12T02:51:55.102Z,6.35
2023-03-12T02:54:24.773Z,5.88
2023-03-12T02:56:52.121Z,6.07
2023-03-12T02:59:21.829Z,7.43
2023-03-12T03:01:57.831Z,6.70
2023-03-12T03:04:25.871Z,6.00
2023-03-12T03:06:53.504Z,6.05
2023-03-12T03:09:22.379Z,11.48
2023-03-12T03:11:50.459Z,5.90
2023-03-12T03:14:17.876Z,6.05
2023-03-12T03:16:45.217Z,4.95
2023-03-12T03:19:12.166Z,6.30
2023-03-12T03:21:39.384Z,7.75
2023-03-12T03:24:06.796Z,5.95
2023-03-12T03:26:33.875Z,6.70
2023-03-12T03:29:00.995Z,6.10
2023-03-12T03:31:28.152Z,7.07
2023-03-12T03:33:55.365Z,7.50
2023-03-12T03:36:23.425Z,4.97
2023-03-12T03:38:58.482Z,9.45
2023-03-12T03:41:26.273Z,5.35
2023-03-12T03:43:58.590Z,5.80
2023-03-12T03:46:26.501Z,8.50
2023-03-12T03:48:59.039Z,6.03
2023-03-12T03:51:27.883Z,10.23
2023-03-12T03:54:02.438Z,5.13
2023-03-12T03:56:30.057Z,7.47
2023-03-12T03:58:58.992Z,8.32
2023-03-12T04:01:26.746Z,5.60
2023-03-12T04:03:55.281Z,6.35
2023-03-12T04:06:22.246Z,7.53
2023-03-12T04:08:49.392Z,6.30
2023-03-12T04:11:21.250Z,6.30
2023-03-12T04:13:49.359Z,6.68
2023-03-12T04:16:18.933Z,6.78
2023-03-12T04:18:46.922Z,7.82
2023-03-12T04:21:15.077Z,7.28
2023-03-12T04:23:43.084Z,6.57
2023-03-12T04:26:11.981Z,8.90
2023-03-12T04:28:39.523Z,6.03
2023-03-12T04:31:08.819Z,6.72
2023-03-12T04:33:40.702Z,7.07
2023-03-12T04:36:09.499Z,6.57
2023-03-12T04:38:39.185Z,6.18
2023-03-12T04:41:13.124Z,6.55
2023-03-12T04:43:46.059Z,4.93
2023-03-12T04:46:14.044Z,7.55
2023-03-12T04:48:43.139Z,6.50
2023-03-12T04:51:10.582Z,6.25
2023-03-12T04:53:38.108Z,5.00
2023-03-12T04:56:05.529Z,5.30
2023-03-12T04:58:33.203Z,6.03
2023-03-12T05:01:00.425Z,5.70
2023-03-12T05:03:27.909Z,5.80
2023-03-12T05:05:55.256Z,6.93
2023-03-12T05:08:22.240Z,6.68
2023-03-12T05:10:49.183Z,5.70
2023-03-12T05:13:21.580Z,6.40
2023-03-12T05:15:52.029Z,7.90
2023-03-12T05:18:23.082Z,5.88
2023-03-12T05:21:08.540Z,6.38
2023-03-12T05:23:36.439Z,7.57
2023-03-12T05:26:03.334Z,7.88
2023-03-12T05:28:30.330Z,7.47
2023-03-12T05:31:01.721Z,9.68
2023-03-12T05:33:29.978Z,6.72
2023-03-12T05:35:59.225Z,8.93
2023-03-12T05:38:27.691Z,6.65
2023-03-12T05:40:59.077Z,8.68
2023-03-12T05:43:28.382Z,7.57
2023-03-12T05:46:01.251Z,6.13
2023-03-12T05:48:28.665Z,5.82
2023-03-12T05:50:56.383Z,8.18
2023-03-12T05:53:24.415Z,6.28
2023-03-12T05:55:51.415Z,7.03
2023-03-12T05:58:19.218Z,8.18
2023-03-12T06:00:46.243Z,7.63
2023-03-12T06:03:14.279Z,7.75
2023-03-12T06:05:44.180Z,7.88
2023-03-12T06:08:11.251Z,7.93
2023-03-12T06:10:40.476Z,8.43
2023-03-12T06:13:08.854Z,7.28
2023-03-12T06:15:35.949Z,8.15
2023-03-12T06:18:05.125Z,6.93
2023-03-12T06:20:32.883Z,7.82
2023-03-12T06:23:00.066Z,7.75
2023-03-12T06:25:27.004Z,7.70
2023-03-12T06:27:53.993Z,8.15
2023-03-12T06:30:21.122Z,8.27
2023-03-12T06:32:48.087Z,9.15
2023-03-12T06:35:15.303Z,8.32
2023-03-12T06:37:42.258Z,8.27
2023-03-12T06:40:10.975Z,8.40
2023-03-12T06:42:38.131Z,8.48
2023-03-12T06:45:06.492Z,7.80
2023-03-12T06:47:33.443Z,7.65
2023-03-12T06:50:00.390Z,7.63
2023-03-12T06:52:27.450Z,8.48
2023-03-12T06:54:54.504Z,9.40
2023-03-12T06:57:21.456Z,8.63
2023-03-12T06:59:50.529Z,8.52
2023-03-12T07:02:17.900Z,7.90
2023-03-12T07:04:45.026Z,7.10
2023-03-12T07:07:12.074Z,7.10
2023-03-12T07:09:39.007Z,10.13
2023-03-12T07:12:06.154Z,7.55
2023-03-12T07:14:33.082Z,7.95
2023-03-12T07:17:01.919Z,7.30
2023-03-12T07:19:30.288Z,8.00
2023-03-12T07:21:57.378Z,7.25
2023-03-12T07:24:24.306Z,9.00
2023-03-12T07:26:51.255Z,7.85
2023-03-12T07:29:18.228Z,6.68
2023-03-12T07:31:45.218Z,8.27
2023-03-12T07:34:12.404Z,8.43
2023-03-12T07:36:39.479Z,6.97
2023-03-12T07:39:06.535Z,9.82
2023-03-12T07:41:33.542Z,7.03
2023-03-12T07:44:00.707Z,7.50
2023-03-12T07:46:27.785Z,11.35
2023-03-12T07:48:55.266Z,9.30
2023-03-12T07:51:22.224Z,9.65
2023-03-12T07:53:49.156Z,7.93
2023-03-12T07:56:16.325Z,7.32
2023-03-12T07:58:43.626Z,6.80
2023-03-12T08:01:10.668Z,10.38
2023-03-12T08:03:38.991Z,7.30
2023-03-12T08:06:06.903Z,8.30
2023-03-12T08:08:34.298Z,7.18
2023-03-12T08:11:01.215Z,6.82
2023-03-12T08:13:28.977Z,7.10
2023-03-12T08:15:56.780Z,6.97
2023-03-12T08:18:24.728Z,6.40
2023-03-12T08:20:55.107Z,8.00
2023-03-12T08:23:22.879Z,9.50
2023-03-12T08:25:51.087Z,7.03
2023-03-12T08:28:20.959Z,7.38
2023-03-12T08:30:49.832Z,9.25
2023-03-12T08:33:17.159Z,7.45
2023-03-12T08:35:45.011Z,10.40
2023-03-12T08:38:12.537Z,7.63
2023-03-12T08:40:39.498Z,8.50
2023-03-12T08:43:07.536Z,7.95
2023-03-12T08:45:37.894Z,7.85
2023-03-12T08:50:33.187Z,9.32
2023-03-12T08:53:00.243Z,7.07
2023-03-12T08:55:30.637Z,8.00
2023-03-12T09:00:25.041Z,6.90
2023-03-12T09:02:53.556Z,10.35
2023-03-12T09:05:20.942Z,8.43
2023-03-12T09:07:49.949Z,6.97
2023-03-12T09:10:17.506Z,9.10
2023-03-12T09:12:45.035Z,7.90
2023-03-12T09:15:11.986Z,8.18
2023-03-12T09:17:39.129Z,7.93
2023-03-12T09:20:08.450Z,7.50
2023-03-12T09:22:38.222Z,7.88
2023-03-12T09:25:07.719Z,8.77
2023-03-12T09:27:47.139Z,8.32
2023-03-12T09:30:19.822Z,7.30
2023-03-12T09:32:47.148Z,6.50
2023-03-12T09:35:16.260Z,7.57
2023-03-12T09:37:43.639Z,7.88
2023-03-12T09:40:20.458Z,7.45
2023-03-12T09:42:54.767Z,6.53
2023-03-12T09:45:30.259Z,7.78
2023-03-12T09:48:03.952Z,7.70
2023-03-12T09:50:43.550Z,6.32
2023-03-12T09:53:19.797Z,7.22
2023-03-12T09:55:50.682Z,6.45
2023-03-12T09:58:27.759Z,7.45
2023-03-12T10:01:37.750Z,6.47
2023-03-12T10:04:48.770Z,6.60
2023-03-12T10:07:31.862Z,7.10
2023-03-12T10:10:40.137Z,8.32
2023-03-12T10:13:44.374Z,6.90
2023-03-12T10:16:34.023Z,6.80
2023-03-12T10:19:34.166Z,7.00
2023-03-12T10:22:50.132Z,7.25
2023-03-12T10:25:36.923Z,7.05
2023-03-12T10:28:34.604Z,7.60
2023-03-12T10:31:13.829Z,7.18
2023-03-12T10:33:52.353Z,7.50
2023-03-12T10:36:25.331Z,9.27
2023-03-12T10:38:52.209Z,6.57
2023-03-12T10:41:25.276Z,7.13
2023-03-12T10:43:52.413Z,6.95
2023-03-12T10:46:41.297Z,7.32
2023-03-12T10:49:23.184Z,8.07
2023-03-12T10:52:02.254Z,7.10
2023-03-12T10:54:36.384Z,7.53
2023-03-12T10:57:04.413Z,7.68
2023-03-12T10:59:36.269Z,7.00
2023-03-12T11:02:26.712Z,6.13
2023-03-12T11:04:54.515Z,6.05
2023-03-12T11:07:33.750Z,6.97
2023-03-12T11:10:23.929Z,8.18
2023-03-12T11:13:03.126Z,7.03
2023-03-12T11:15:43.512Z,6.50
2023-03-12T11:18:33.344Z,11.23
2023-03-12T11:21:09.236Z,6.32
2023-03-12T11:23:43.949Z,7.63
2023-03-12T11:26:22.306Z,14.32
2023-03-12T11:29:09.317Z,7.05
2023-03-12T11:31:56.493Z,8.07
2023-03-12T11:34:33.362Z,7.18
2023-03-12T11:40:10.864Z,6.95
2023-03-12T11:43:32.392Z,6.95
2023-03-12T11:46:39.848Z,6.45
2023-03-12T11:49:36.672Z,6.90
2023-03-12T11:52:41.152Z,7.70
2023-03-12T11:55:43.837Z,8.10
2023-03-12T11:58:51.139Z,9.95
2023-03-12T12:02:10.341Z,8.98
2023-03-12T12:05:04.538Z,8.48
2023-03-12T12:08:01.566Z,10.20
2023-03-12T12:11:16.331Z,9.15
2023-03-12T12:14:17.864Z,7.57
2023-03-12T12:17:00.221Z,7.50
2023-03-12T12:19:58.724Z,8.20
2023-03-12T12:23:10.387Z,7.63
2023-03-12T12:26:09.389Z,6.72
2023-03-12T12:29:17.429Z,7.28
2023-03-12T12:31:56.755Z,9.00
2023-03-12T12:34:34.965Z,6.88
2023-03-12T12:37:53.476Z,7.32
2023-03-12T12:40:48.729Z,5.63
2023-03-12T12:43:30.589Z,9.98
2023-03-12T12:46:03.232Z,6.90
2023-03-12T12:48:43.596Z,7.03
2023-03-12T12:51:11.114Z,8.65
2023-03-12T12:53:52.414Z,7.88
2023-03-12T12:57:14.437Z,8.02
2023-03-12T13:00:04.799Z,7.35
2023-03-12T13:02:34.026Z,10.00
2023-03-12T13:05:01.411Z,7.88
2023-03-12T13:07:30.700Z,6.80
2023-03-12T13:09:58.712Z,8.25
2023-03-12T13:12:34.733Z,6.88
2023-03-12T13:15:27.929Z,8.27
2023-03-12T13:18:18.672Z,8.88
2023-03-12T13:20:54.978Z,10.38
2023-03-12T13:23:46.625Z,9.85
2023-03-12T13:26:26.207Z,8.88
2023-03-12T13:28:56.801Z,7.75
2023-03-12T13:31:30.225Z,8.27
2023-03-12T13:34:00.380Z,8.82
2023-03-12T13:36:28.984Z,13.60
2023-03-12T13:38:57.993Z,9.98
2023-03-12T13:41:44.689Z,9.68
2023-03-12T13:44:23.274Z,9.27
2023-03-12T13:47:02.435Z,8.77
2023-03-12T13:49:41.789Z,9.75
2023-03-12T13:52:38.301Z,8.68
2023-03-12T13:55:13.916Z,9.25
2023-03-12T13:57:50.512Z,12.00
2023-03-12T14:00:36.485Z,10.68
2023-03-12T14:03:15.637Z,10.20
2023-03-12T14:06:07.928Z,15.15
2023-03-12T14:09:24.030Z,11.40
2023-03-12T14:12:09.056Z,11.38
2023-03-12T14:14:48.287Z,8.15
2023-03-12T14:17:40.804Z,13.05
2023-03-12T14:20:17.649Z,12.43
2023-03-12T14:25:36.435Z,12.50
2023-03-12T14:28:15.936Z,14.07
2023-03-12T14:30:56.280Z,9.32
2023-03-12T14:33:25.158Z,13.85
2023-03-12T14:36:02.407Z,14.18
2023-03-12T14:38:40.378Z,15.00
2023-03-12T14:41:26.199Z,10.55
2023-03-12T14:43:54.607Z,13.68
2023-03-12T14:46:25.025Z,16.08
2023-03-12T14:48:57.492Z,10.80
2023-03-12T14:51:28.650Z,10.38
2023-03-12T14:53:57.003Z,17.00
2023-03-12T14:56:33.324Z,18.65
2023-03-12T14:59:21.063Z,21.02
2023-03-12T15:01:48.643Z,13.20
2023-03-12T15:04:22.631Z,14.50
2023-03-12T15:07:04.536Z,17.65
2023-03-12T15:09:35.517Z,24.17
2023-03-12T15:12:06.893Z,14.35
2023-03-12T15:14:42.272Z,19.48
2023-03-12T15:17:20.280Z,17.55
2023-03-12T15:19:49.061Z,17.70
2023-03-12T15:22:23.229Z,20.73
2023-03-12T15:24:50.799Z,17.13
2023-03-12T15:27:33.271Z,17.75
2023-03-12T15:30:01.842Z,25.88
2023-03-12T15:32:31.790Z,28.20
2023-03-12T15:34:59.816Z,27.20
2023-03-12T15:37:38.031Z,24.20
2023-03-12T15:40:20.383Z,24.17
2023-03-12T15:42:49.236Z,30.27
2023-03-12T15:45:26.274Z,28.00
2023-03-12T15:47:54.927Z,27.17
2023-03-12T15:50:41.816Z,24.80
2023-03-12T15:53:14.929Z,23.65
2023-03-12T15:55:42.071Z,26.73
2023-03-12T15:58:37.040Z,23.80
2023-03-12T16:01:18.011Z,17.33
2023-03-12T16:03:46.408Z,21.52
2023-03-12T16:06:18.225Z,23.38
2023-03-12T16:08:51.954Z,25.75
2023-03-12T16:11:26.240Z,17.73
2023-03-12T16:14:08.762Z,21.95
2023-03-12T16:16:35.832Z,16.25
2023-03-12T16:19:03.366Z,19.13
2023-03-12T16:21:30.386Z,17.92
2023-03-12T16:23:57.273Z,18.98
2023-03-12T16:26:24.264Z,19.35
2023-03-12T16:28:51.196Z,19.85
2023-03-12T16:31:19.238Z,23.15
2023-03-12T16:33:46.510Z,17.42
2023-03-12T16:36:19.201Z,17.77
2023-03-12T16:38:47.089Z,23.20
2023-03-12T16:41:19.012Z,19.48
2023-03-12T16:43:50.394Z,23.60
2023-03-12T16:46:21.069Z,22.25
2023-03-12T16:48:53.736Z,22.25
2023-03-12T16:51:21.524Z,23.63
2023-03-12T16:53:58.527Z,44.42
2023-03-12T16:56:32.517Z,83.35
2023-03-12T16:59:03.638Z,36.63
2023-03-12T17:01:31.300Z,68.93
2023-03-12T17:03:58.840Z,26.02
2023-03-12T17:06:27.636Z,146.43
2023-03-12T17:08:55.301Z,44.33
2023-03-12T17:11:30.391Z,25.35
2023-03-12T17:14:01.281Z,33.75
2023-03-12T17:16:29.251Z,30.00
2023-03-12T17:18:56.877Z,27.92
2023-03-12T17:21:24.784Z,28.90
2023-03-12T17:23:51.802Z,20.20
2023-03-12T17:26:19.431Z,12.95
2023-03-12T17:28:46.809Z,23.02
2023-03-12T17:31:13.841Z,32.00
2023-03-12T17:33:42.950Z,15.82
2023-03-12T17:36:10.162Z,22.80
2023-03-12T17:38:37.783Z,31.13
2023-03-12T17:41:09.437Z,20.50
2023-03-12T17:43:39.547Z,14.65
2023-03-12T17:46:08.374Z,16.75
2023-03-12T17:48:35.891Z,20.17
2023-03-12T17:51:11.008Z,20.35
2023-03-12T17:53:41.878Z,22.73
2023-03-12T17:56:12.351Z,21.20
2023-03-12T17:58:41.708Z,18.90
2023-03-12T18:01:08.673Z,12.50
2023-03-12T18:03:35.850Z,19.15
2023-03-12T18:06:03.251Z,19.70
2023-03-12T18:08:30.130Z,18.33
2023-03-12T18:10:57.234Z,19.23
2023-03-12T18:13:24.180Z,13.70
2023-03-12T18:15:57.561Z,33.10
2023-03-12T18:18:26.251Z,47.25
2023-03-12T18:20:53.437Z,29.92
2023-03-12T18:23:20.664Z,18.67
2023-03-12T18:25:47.635Z,15.30
2023-03-12T18:28:15.341Z,33.38
2023-03-12T18:30:44.724Z,20.65
2023-03-12T18:33:11.682Z,22.48
2023-03-12T18:35:39.045Z,16.02
2023-03-12T18:38:05.989Z,12.63
2023-03-12T18:40:33.176Z,24.98
2023-03-12T18:43:01.017Z,24.63
2023-03-12T18:45:29.053Z,13.38
2023-03-12T18:47:56.649Z,21.00
2023-03-12T18:50:23.577Z,28.45
2023-03-12T18:52:50.561Z,23.25
2023-03-12T18:55:17.686Z,32.88
2023-03-12T18:57:46.578Z,11.30
2023-03-12T19:00:17.769Z,31.17
2023-03-12T19:02:47.992Z,19.55
2023-03-12T19:05:16.445Z,34.70
2023-03-12T19:07:43.753Z,18.80
2023-03-12T19:10:14.490Z,26.17
2023-03-12T19:12:52.200Z,31.80
2023-03-12T19:15:22.308Z,26.88
2023-03-12T19:17:49.370Z,22.65
2023-03-12T19:20:16.696Z,13.27
2023-03-12T19:22:43.657Z,28.98
2023-03-12T19:25:11.273Z,18.30
2023-03-12T19:27:38.169Z,23.38
2023-03-12T19:30:05.882Z,22.45
2023-03-12T19:32:42.455Z,20.35
2023-03-12T19:35:13.412Z,20.27
2023-03-12T19:37:41.110Z,18.38
2023-03-12T19:40:10.906Z,11.13
2023-03-12T19:42:37.954Z,11.57
2023-03-12T19:45:05.376Z,19.63
2023-03-12T19:47:33.277Z,14.55
2023-03-12T19:50:00.799Z,12.13
2023-03-12T19:52:27.980Z,18.35
2023-03-12T19:55:04.289Z,11.88
2023-03-12T19:57:33.353Z,15.25
2023-03-12T20:00:00.286Z,26.08
2023-03-12T20:02:27.510Z,20.80
2023-03-12T20:04:55.441Z,28.45
2023-03-12T20:07:22.544Z,27.17
2023-03-12T20:09:49.620Z,21.13
2023-03-12T20:12:16.637Z,23.38
2023-03-12T20:14:43.598Z,15.00
2023-03-12T20:17:12.050Z,29.90
2023-03-12T20:19:39.206Z,20.88
2023-03-12T20:22:07.363Z,21.75
2023-03-12T20:24:34.479Z,27.70
2023-03-12T20:27:01.451Z,29.90
2023-03-12T20:29:28.608Z,23.00
2023-03-12T20:31:55.642Z,31.73
2023-03-12T20:34:23.096Z,29.75
2023-03-12T20:36:49.989Z,18.90
2023-03-12T20:39:17.155Z,19.92
2023-03-12T20:41:44.298Z,21.67
2023-03-12T20:44:11.293Z,17.75
2023-03-12T20:46:38.169Z,25.15
2023-03-12T20:49:05.184Z,19.77
2023-03-12T20:51:32.093Z,25.10
2023-03-12T20:53:59.074Z,25.90
2023-03-12T20:56:26.026Z,21.60
2023-03-12T20:58:53.782Z,22.67
2023-03-12T21:01:20.769Z,32.15
2023-03-12T21:03:47.785Z,14.43
2023-03-12T21:06:14.728Z,20.77
2023-03-12T21:08:41.596Z,15.63
2023-03-12T21:11:08.905Z,19.58
2023-03-12T21:13:36.775Z,32.38
2023-03-12T21:16:07.190Z,33.78
2023-03-12T21:18:34.209Z,13.35
2023-03-12T21:21:07.402Z,21.58
2023-03-12T21:23:35.274Z,22.05
2023-03-12T21:26:08.962Z,27.80
2023-03-12T21:28:36.209Z,32.38
2023-03-12T21:31:13.325Z,12.80
2023-03-12T21:33:40.294Z,14.95
2023-03-12T21:36:10.230Z,22.42
2023-03-12T21:38:38.477Z,21.77
2023-03-12T21:41:14.239Z,21.27
2023-03-12T21:43:41.778Z,19.88
2023-03-12T21:46:16.267Z,19.77
2023-03-12T21:48:48.110Z,28.10
2023-03-12T21:51:17.701Z,28.20
2023-03-12T21:53:45.303Z,25.02
2023-03-12T21:56:12.916Z,22.90
2023-03-12T21:58:39.891Z,13.77
2023-03-12T22:01:18.490Z,27.27
2023-03-12T22:03:46.499Z,10.77
2023-03-12T22:06:15.120Z,11.93
2023-03-12T22:08:43.239Z,18.27
2023-03-12T22:11:10.617Z,23.55
2023-03-12T22:13:38.127Z,19.13
2023-03-12T22:16:08.264Z,14.63
2023-03-12T22:18:40.674Z,26.30
2023-03-12T22:21:08.649Z,18.33
2023-03-12T22:23:37.094Z,25.60
2023-03-12T22:26:06.255Z,25.50
2023-03-12T22:28:33.924Z,23.15
2023-03-12T22:31:06.926Z,32.83
2023-03-12T22:33:38.445Z,18.48
2023-03-12T22:36:08.792Z,17.83
2023-03-12T22:38:37.035Z,23.63
2023-03-12T22:41:20.057Z,24.50
2023-03-12T22:43:48.969Z,13.48
2023-03-12T22:46:18.551Z,12.25
2023-03-12T22:48:52.523Z,18.35
2023-03-12T22:51:19.427Z,19.90
2023-03-12T22:53:46.400Z,13.30
2023-03-12T22:56:14.488Z,22.55
2023-03-12T22:58:41.710Z,21.17
2023-03-12T23:01:14.810Z,22.17
2023-03-12T23:03:44.248Z,25.17
2023-03-12T23:06:18.008Z,13.65
2023-03-12T23:08:47.582Z,21.23
2023-03-12T23:11:15.764Z,28.13
2023-03-12T23:13:45.239Z,12.05
2023-03-12T23:16:15.932Z,28.67
2023-03-12T23:18:44.493Z,18.67
2023-03-12T23:21:16.033Z,23.20
2023-03-12T23:23:44.000Z,17.20
2023-03-12T23:26:16.153Z,26.45
2023-03-12T23:28:43.608Z,21.17
2023-03-12T23:31:10.926Z,32.22
2023-03-12T23:33:38.489Z,24.67
2023-03-12T23:36:10.327Z,13.02
2023-03-12T23:38:37.792Z,16.15
2023-03-12T23:41:12.717Z,32.22
2023-03-12T23:43:39.988Z,15.60
2023-03-12T23:46:08.823Z,18.08
2023-03-12T23:48:37.870Z,18.92
2023-03-12T23:51:19.680Z,18.73
2023-03-12T23:53:49.656Z,19.67
2023-03-12T23:56:22.466Z,12.45
2023-03-12T23:58:50.637Z,19.75
